OIFS  Shahrekord Airport

Add Bookmark

Shahrekord, Iran

Status IATA
Operational CQD
Latitude Longitude
32° 17' 49" N 50° 50' 31" E
32.297199 50.842201
Local (DST + 5) UTC (GMT + 4)
Oct 21, 2014 04:00 Oct 21, 2014 00:30
Sunrise-Sunset Local UTC
Begin Civil Twilight 05:48 02:18
Sunrise 06:13 02:43
Sunset 05:28 13:58
End Civil Twilight 05:53 14:23

Current Weather

METAR Observed VFR
OIFS 210000Z 19014KT 9999 FEW040 16/M01 Q1021 Tue, Oct 21, 2014 @ 00:00 UTC
(30 Minutes ago)
Visual Flight Rules
Wind Visibility Clouds Conditions
190° at 14 knots (26 kph) 10 km or more
  • Few at 4,000' AGL
  • No significant weather
Temperatures Readings Precipitation
Current Temp 16°C (61°F)
Dewpoint -1°C (30°F)
Humidity 31%
Altimeter 30.15"Hg
Sea Level Pressure 1021mb
Field Elevation 6817.59'
None Recorded

Additional weather within a 185.2km radius of OIFS

Map ICAO Location
OIFM 108km E (062°)
OIAI 151.5km W (258°)

24 Hour Weather History

Loading
-

24 Hour Weather Graphs

Loading
-

CheckWX.com is intended as a tool to help pilots better visualize weather data. It is not intended as a substitute for an official weather briefing obtained from a Flight Service Station. CheckWX.com does not meet the FAA requirements for an official pre-flight weather briefing. Therefore, it's important that pilots still call and obtain an official FSS pre-flight weather briefing.